Kine — C6WT4 — position and weather

sailwx.info

Track history (hours):
 
Tides and Currents Weather Stations Pressure Air Temp Water Temp Dewpoint Dewpoint Depression Visibility Wind Speed Wind Dir Waves Ship Positions

Kine

Last reported at 2016-Feb-13 23:33 UTC. Time now 2016-Feb-13 23:38 UTC.
Position N 51°57' E 003°48'.

Length 89 m; draft 3.3 m.

Type: Cargo ship. MMSI: 311117000.

Date/timePositionNaut miles runAvg speedWind from/ knotsBaromVisibWave heightAir tempDewpointWater temp
2016-Feb-13 23:33N 51°57' E 003°48'0 0.0
2016-Feb-13 22:33N 51°57' E 003°48'0 0.0
2016-Feb-13 21:33N 51°57' E 003°48'0 0.0
2016-Feb-13 20:33N 51°57' E 003°48'0 0.1
2016-Feb-13 19:27N 51°57' E 003°48'0 0.0
2016-Feb-13 18:33N 51°57' E 003°48'0 0.0
2016-Feb-13 17:33N 51°57' E 003°48'0 0.1
2016-Feb-13 16:27N 51°57' E 003°48'0 0.1
2016-Feb-13 15:30N 51°57' E 003°48'0 0.0
2016-Feb-13 14:33N 51°57' E 003°48'52 7.4
2016-Feb-13 07:29N 51°39' E 002°29'1010.8
2016-Feb-13 06:33N 51°31' E 002°19'1111.2
2016-Feb-13 05:33N 51°22' E 002°09'1111.4
2016-Feb-13 04:33N 51°12' E 001°60'1212.4
2016-Feb-13 03:33N 51°04' E 001°44'1312.9
2016-Feb-13 02:33N 50°55' E 001°30'106 7.5
2016-Feb-12 12:25N 50°31' W 001°14'3 1.2
2016-Feb-12 10:18N 50°33' W 001°16'3 3.9
2016-Feb-12 09:25N 50°33' W 001°11'14 7.6
2016-Feb-12 07:34N 50°31' W 001°33'6 6.0
2016-Feb-12 06:34N 50°30' W 001°43'6 5.6
2016-Feb-12 05:33N 50°29' W 001°51'54 6.7
2016-Feb-11 21:32N 50°32' W 003°16'8 8.6
2016-Feb-11 20:34N 50°32' W 003°29'1 0.1
2016-Feb-11 08:10N 50°33' W 003°30'2 3.1
2016-Feb-11 07:29N 50°31' W 003°28'1 1.6
2016-Feb-11 06:32N 50°30' W 003°29'0 0.0
2016-Feb-11 05:32N 50°29' W 003°29'0 0.0
2016-Feb-11 01:14N 50°29' W 003°29'0 0.0
2016-Feb-10 23:32N 50°29' W 003°29'2 1.7
2016-Feb-10 22:33N 50°30' W 003°27'8 8.3
2016-Feb-10 21:33N 50°31' W 003°14'53 8.8
2016-Feb-10 15:31N 50°29' W 001°50'2211.1
2016-Feb-10 13:31N 50°30' W 001°15'28 5.5
2016-Feb-10 08:23N 50°32' W 000°31'3 3.1
2016-Feb-10 07:30N 50°32' W 000°27'12 5.2
2016-Feb-10 05:08N 50°32' W 000°07'4 6.2
2016-Feb-10 04:24N 50°33' W 000°00'6 6.3
2016-Feb-10 03:24N 50°34' E 000°09'5 6.1
2016-Feb-10 02:33N 50°36' E 000°17'42 6.0
2016-Feb-09 19:34N 50°57' E 001°14'1110.7
2016-Feb-09 18:34N 51°04' E 001°27'10 9.8
2016-Feb-09 17:34N 51°11' E 001°39'9 8.7
2016-Feb-09 16:34N 51°17' E 001°48'8 7.7
2016-Feb-09 15:34N 51°24' E 001°55'7 7.1
2016-Feb-09 14:33N 51°29' E 002°02'7 6.9
2016-Feb-09 13:33N 51°35' E 002°09'8 7.7
2016-Feb-09 12:28N 51°41' E 002°18'49 8.2
2016-Feb-09 06:32N 52°16' E 003°13'4 4.1
2016-Feb-09 05:32N 52°18' E 003°18'3 3.4
2016-Feb-09 04:32N 52°20' E 003°23'3 2.7
2016-Feb-09 03:32N 52°22' E 003°26'26 2.9
2016-Feb-08 18:33N 52°31' E 004°07'3 2.9
2016-Feb-08 17:33N 52°31' E 004°12'3 2.8
2016-Feb-08 16:33N 52°31' E 004°16'3 2.6
2016-Feb-08 15:33N 52°30' E 004°20'3 3.2
2016-Feb-08 14:33N 52°29' E 004°26'4 3.6
2016-Feb-08 13:33N 52°28' E 004°31'3 3.2
2016-Feb-08 12:33N 52°28' E 004°36'7 6.9
2016-Feb-08 11:33N 52°25' E 004°46'0 0.0
2016-Feb-08 10:31N 52°25' E 004°46'0 0.0
2016-Feb-08 09:31N 52°25' E 004°46'0 0.0
2016-Feb-08 08:31N 52°25' E 004°46'0 0.0
2016-Feb-08 07:28N 52°25' E 004°46'0 0.0
2016-Feb-08 06:28N 52°25' E 004°46'0 0.0
2016-Feb-08 05:31N 52°25' E 004°46'0 0.0
2016-Feb-08 04:31N 52°25' E 004°46'0 0.0
2016-Feb-08 03:31N 52°25' E 004°46'0 0.0
2016-Feb-08 02:31N 52°25' E 004°46'0 0.0
2016-Feb-08 01:31N 52°25' E 004°46'0 0.0
2016-Feb-08 00:31N 52°25' E 004°46'0 0.0
2016-Feb-07 23:31N 52°25' E 004°46'0 0.0
2016-Feb-07 22:28N 52°25' E 004°46'0 0.0
2016-Feb-07 21:31N 52°25' E 004°46'0 0.0
2016-Feb-07 20:31N 52°25' E 004°46'0 0.0
2016-Feb-07 19:31N 52°25' E 004°46'0 0.0
2016-Feb-07 18:28N 52°25' E 004°46'0 0.0
2016-Feb-07 17:31N 52°25' E 004°46'0 0.0
2016-Feb-07 16:31N 52°25' E 004°46'0 0.0
2016-Feb-07 15:31N 52°25' E 004°46'0 0.0
2016-Feb-07 14:31N 52°25' E 004°46'0 0.0
2016-Feb-07 13:31N 52°25' E 004°46'0 0.0
2016-Feb-07 12:31N 52°25' E 004°46'0 0.0
2016-Feb-07 11:31N 52°25' E 004°46'0 0.0
2016-Feb-07 10:31N 52°25' E 004°46'0 0.0
2016-Feb-07 09:31N 52°25' E 004°46'0 0.0
2016-Feb-07 08:31N 52°25' E 004°46'0 0.0
2016-Feb-07 07:28N 52°25' E 004°46'0 0.0
2016-Feb-07 06:31N 52°25' E 004°46'0 0.0
2016-Feb-07 05:28N 52°25' E 004°46'0 0.0
2016-Feb-07 04:31N 52°25' E 004°46'0 0.0
2016-Feb-07 03:31N 52°25' E 004°46'0 0.0
2016-Feb-07 02:31N 52°25' E 004°46'0 0.0
2016-Feb-07 01:31N 52°25' E 004°46'0 0.0
2016-Feb-07 00:31N 52°25' E 004°46'0 0.0
2016-Feb-06 23:31N 52°25' E 004°46'0 0.0
2016-Feb-06 22:31N 52°25' E 004°46'0 0.0
2016-Feb-06 21:31N 52°25' E 004°46'0 0.0
2016-Feb-06 20:31N 52°25' E 004°46'0 0.0
2016-Feb-06 19:31N 52°25' E 004°46'0 0.0
2016-Feb-06 18:31N 52°25' E 004°46'0 0.0
2016-Feb-06 17:31N 52°25' E 004°46'0 0.0
2016-Feb-06 16:31N 52°25' E 004°46'0 0.0
2016-Feb-06 15:31N 52°25' E 004°46'0 0.0
2016-Feb-06 14:31N 52°25' E 004°46'0 0.0
2016-Feb-06 13:31N 52°25' E 004°46'0 0.0
2016-Feb-06 12:31N 52°25' E 004°46'0 0.0
2016-Feb-06 11:31N 52°25' E 004°46'0 0.0
2016-Feb-06 10:31N 52°25' E 004°46'0 0.0
2016-Feb-06 09:31N 52°25' E 004°46'0 0.0
2016-Feb-06 08:31N 52°25' E 004°46'0 0.0
2016-Feb-06 07:31N 52°25' E 004°46'0 0.0
2016-Feb-06 06:31N 52°25' E 004°46'0 0.0
2016-Feb-06 05:31N 52°25' E 004°46'0 0.0
2016-Feb-06 04:31N 52°25' E 004°46'0 0.0
2016-Feb-06 03:28N 52°25' E 004°46'0 0.0
2016-Feb-06 02:31N 52°25' E 004°46'0 0.0
2016-Feb-06 01:28N 52°25' E 004°46'0 0.0
2016-Feb-06 00:28N 52°25' E 004°46'0 0.0
2016-Feb-05 23:33N 52°25' E 004°46'7 7.1
2016-Feb-05 22:33N 52°28' E 004°36'7 6.6
2016-Feb-05 21:33N 52°28' E 004°25'8 8.4
2016-Feb-05 20:33N 52°27' E 004°12'2 1.7
2016-Feb-05 19:27N 52°27' E 004°08'0 0.0
2016-Feb-05 18:33N 52°27' E 004°08'0 0.0
2016-Feb-05 17:33N 52°27' E 004°08'0 0.0
2016-Feb-05 16:30N 52°27' E 004°08'0 0.0
2016-Feb-05 15:30N 52°27' E 004°08'0 0.0
2016-Feb-05 14:33N 52°27' E 004°08'0 0.0
2016-Feb-05 13:33N 52°27' E 004°08'0 0.0
2016-Feb-05 12:33N 52°27' E 004°08'0 0.0
2016-Feb-05 11:24N 52°27' E 004°08'2 1.9
2016-Feb-05 10:33N 52°26' E 004°06'1110.6
2016-Feb-05 09:32N 52°23' E 003°49'67 9.4
2016-Feb-05 02:27N 51°38' E 002°29'910.1
2016-Feb-05 01:33N 51°30' E 002°21'1010.6
2016-Feb-05 00:33N 51°22' E 002°11'1110.7
2016-Feb-04 23:33N 51°13' E 002°00'1111.3
2016-Feb-04 22:33N 51°06' E 001°47'1212.4
2016-Feb-04 21:33N 50°57' E 001°33'113 9.4
2016-Feb-04 09:30N 50°28' W 001°20'  
Track history (hours):
 
Tides and Currents Weather Stations Pressure Air Temp Water Temp Dewpoint Dewpoint Depression Visibility Wind Speed Wind Dir Waves Ship Positions

Kine

Last reported at 2016-Feb-13 23:33 UTC. Time now 2016-Feb-13 23:38 UTC.
Position N 51°57' E 003°48'.

Length 89 m; draft 3.3 m.

Type: Cargo ship. MMSI: 311117000.

Date/timePositionNaut miles runAvg speedWind from/ knotsBaromVisibWave heightAir tempDewpointWater temp
2016-Feb-13 23:33N 51°57' E 003°48'0 0.0
2016-Feb-13 22:33N 51°57' E 003°48'0 0.0
2016-Feb-13 21:33N 51°57' E 003°48'0 0.0
2016-Feb-13 20:33N 51°57' E 003°48'0 0.1
2016-Feb-13 19:27N 51°57' E 003°48'0 0.0
2016-Feb-13 18:33N 51°57' E 003°48'0 0.0
2016-Feb-13 17:33N 51°57' E 003°48'0 0.1
2016-Feb-13 16:27N 51°57' E 003°48'0 0.1
2016-Feb-13 15:30N 51°57' E 003°48'0 0.0
2016-Feb-13 14:33N 51°57' E 003°48'52 7.4
2016-Feb-13 07:29N 51°39' E 002°29'1010.8
2016-Feb-13 06:33N 51°31' E 002°19'1111.2
2016-Feb-13 05:33N 51°22' E 002°09'1111.4
2016-Feb-13 04:33N 51°12' E 001°60'1212.4
2016-Feb-13 03:33N 51°04' E 001°44'1312.9
2016-Feb-13 02:33N 50°55' E 001°30'106 7.5
2016-Feb-12 12:25N 50°31' W 001°14'3 1.2
2016-Feb-12 10:18N 50°33' W 001°16'3 3.9
2016-Feb-12 09:25N 50°33' W 001°11'14 7.6
2016-Feb-12 07:34N 50°31' W 001°33'6 6.0
2016-Feb-12 06:34N 50°30' W 001°43'6 5.6
2016-Feb-12 05:33N 50°29' W 001°51'54 6.7
2016-Feb-11 21:32N 50°32' W 003°16'8 8.6
2016-Feb-11 20:34N 50°32' W 003°29'1 0.1
2016-Feb-11 08:10N 50°33' W 003°30'2 3.1
2016-Feb-11 07:29N 50°31' W 003°28'1 1.6
2016-Feb-11 06:32N 50°30' W 003°29'0 0.0
2016-Feb-11 05:32N 50°29' W 003°29'0 0.0
2016-Feb-11 01:14N 50°29' W 003°29'0 0.0
2016-Feb-10 23:32N 50°29' W 003°29'2 1.7
2016-Feb-10 22:33N 50°30' W 003°27'8 8.3
2016-Feb-10 21:33N 50°31' W 003°14'53 8.8
2016-Feb-10 15:31N 50°29' W 001°50'2211.1
2016-Feb-10 13:31N 50°30' W 001°15'28 5.5
2016-Feb-10 08:23N 50°32' W 000°31'3 3.1
2016-Feb-10 07:30N 50°32' W 000°27'12 5.2
2016-Feb-10 05:08N 50°32' W 000°07'4 6.2
2016-Feb-10 04:24N 50°33' W 000°00'6 6.3
2016-Feb-10 03:24N 50°34' E 000°09'5 6.1
2016-Feb-10 02:33N 50°36' E 000°17'42 6.0
2016-Feb-09 19:34N 50°57' E 001°14'1110.7
2016-Feb-09 18:34N 51°04' E 001°27'10 9.8
2016-Feb-09 17:34N 51°11' E 001°39'9 8.7
2016-Feb-09 16:34N 51°17' E 001°48'8 7.7
2016-Feb-09 15:34N 51°24' E 001°55'7 7.1
2016-Feb-09 14:33N 51°29' E 002°02'7 6.9
2016-Feb-09 13:33N 51°35' E 002°09'8 7.7
2016-Feb-09 12:28N 51°41' E 002°18'49 8.2
2016-Feb-09 06:32N 52°16' E 003°13'4 4.1
2016-Feb-09 05:32N 52°18' E 003°18'3 3.4
2016-Feb-09 04:32N 52°20' E 003°23'3 2.7
2016-Feb-09 03:32N 52°22' E 003°26'26 2.9
2016-Feb-08 18:33N 52°31' E 004°07'3 2.9
2016-Feb-08 17:33N 52°31' E 004°12'3 2.8
2016-Feb-08 16:33N 52°31' E 004°16'3 2.6
2016-Feb-08 15:33N 52°30' E 004°20'3 3.2
2016-Feb-08 14:33N 52°29' E 004°26'4 3.6
2016-Feb-08 13:33N 52°28' E 004°31'3 3.2
2016-Feb-08 12:33N 52°28' E 004°36'7 6.9
2016-Feb-08 11:33N 52°25' E 004°46'0 0.0
2016-Feb-08 10:31N 52°25' E 004°46'0 0.0
2016-Feb-08 09:31N 52°25' E 004°46'0 0.0
2016-Feb-08 08:31N 52°25' E 004°46'0 0.0
2016-Feb-08 07:28N 52°25' E 004°46'0 0.0
2016-Feb-08 06:28N 52°25' E 004°46'0 0.0
2016-Feb-08 05:31N 52°25' E 004°46'0 0.0
2016-Feb-08 04:31N 52°25' E 004°46'0 0.0
2016-Feb-08 03:31N 52°25' E 004°46'0 0.0
2016-Feb-08 02:31N 52°25' E 004°46'0 0.0
2016-Feb-08 01:31N 52°25' E 004°46'0 0.0
2016-Feb-08 00:31N 52°25' E 004°46'0 0.0
2016-Feb-07 23:31N 52°25' E 004°46'0 0.0
2016-Feb-07 22:28N 52°25' E 004°46'0 0.0
2016-Feb-07 21:31N 52°25' E 004°46'0 0.0
2016-Feb-07 20:31N 52°25' E 004°46'0 0.0
2016-Feb-07 19:31N 52°25' E 004°46'0 0.0
2016-Feb-07 18:28N 52°25' E 004°46'0 0.0
2016-Feb-07 17:31N 52°25' E 004°46'0 0.0
2016-Feb-07 16:31N 52°25' E 004°46'0 0.0
2016-Feb-07 15:31N 52°25' E 004°46'0 0.0
2016-Feb-07 14:31N 52°25' E 004°46'0 0.0
2016-Feb-07 13:31N 52°25' E 004°46'0 0.0
2016-Feb-07 12:31N 52°25' E 004°46'0 0.0
2016-Feb-07 11:31N 52°25' E 004°46'0 0.0
2016-Feb-07 10:31N 52°25' E 004°46'0 0.0
2016-Feb-07 09:31N 52°25' E 004°46'0 0.0
2016-Feb-07 08:31N 52°25' E 004°46'0 0.0
2016-Feb-07 07:28N 52°25' E 004°46'0 0.0
2016-Feb-07 06:31N 52°25' E 004°46'0 0.0
2016-Feb-07 05:28N 52°25' E 004°46'0 0.0
2016-Feb-07 04:31N 52°25' E 004°46'0 0.0
2016-Feb-07 03:31N 52°25' E 004°46'0 0.0
2016-Feb-07 02:31N 52°25' E 004°46'0 0.0
2016-Feb-07 01:31N 52°25' E 004°46'0 0.0
2016-Feb-07 00:31N 52°25' E 004°46'0 0.0
2016-Feb-06 23:31N 52°25' E 004°46'0 0.0
2016-Feb-06 22:31N 52°25' E 004°46'0 0.0
2016-Feb-06 21:31N 52°25' E 004°46'0 0.0
2016-Feb-06 20:31N 52°25' E 004°46'0 0.0
2016-Feb-06 19:31N 52°25' E 004°46'0 0.0
2016-Feb-06 18:31N 52°25' E 004°46'0 0.0
2016-Feb-06 17:31N 52°25' E 004°46'0 0.0
2016-Feb-06 16:31N 52°25' E 004°46'0 0.0
2016-Feb-06 15:31N 52°25' E 004°46'0 0.0
2016-Feb-06 14:31N 52°25' E 004°46'0 0.0
2016-Feb-06 13:31N 52°25' E 004°46'0 0.0
2016-Feb-06 12:31N 52°25' E 004°46'0 0.0
2016-Feb-06 11:31N 52°25' E 004°46'0 0.0
2016-Feb-06 10:31N 52°25' E 004°46'0 0.0
2016-Feb-06 09:31N 52°25' E 004°46'0 0.0
2016-Feb-06 08:31N 52°25' E 004°46'0 0.0
2016-Feb-06 07:31N 52°25' E 004°46'0 0.0
2016-Feb-06 06:31N 52°25' E 004°46'0 0.0
2016-Feb-06 05:31N 52°25' E 004°46'0 0.0
2016-Feb-06 04:31N 52°25' E 004°46'0 0.0
2016-Feb-06 03:28N 52°25' E 004°46'0 0.0
2016-Feb-06 02:31N 52°25' E 004°46'0 0.0
2016-Feb-06 01:28N 52°25' E 004°46'0 0.0
2016-Feb-06 00:28N 52°25' E 004°46'0 0.0
2016-Feb-05 23:33N 52°25' E 004°46'7 7.1
2016-Feb-05 22:33N 52°28' E 004°36'7 6.6
2016-Feb-05 21:33N 52°28' E 004°25'8 8.4
2016-Feb-05 20:33N 52°27' E 004°12'2 1.7
2016-Feb-05 19:27N 52°27' E 004°08'0 0.0
2016-Feb-05 18:33N 52°27' E 004°08'0 0.0
2016-Feb-05 17:33N 52°27' E 004°08'0 0.0
2016-Feb-05 16:30N 52°27' E 004°08'0 0.0
2016-Feb-05 15:30N 52°27' E 004°08'0 0.0
2016-Feb-05 14:33N 52°27' E 004°08'0 0.0
2016-Feb-05 13:33N 52°27' E 004°08'0 0.0
2016-Feb-05 12:33N 52°27' E 004°08'0 0.0
2016-Feb-05 11:24N 52°27' E 004°08'2 1.9
2016-Feb-05 10:33N 52°26' E 004°06'1110.6
2016-Feb-05 09:32N 52°23' E 003°49'67 9.4
2016-Feb-05 02:27N 51°38' E 002°29'910.1
2016-Feb-05 01:33N 51°30' E 002°21'1010.6
2016-Feb-05 00:33N 51°22' E 002°11'1110.7
2016-Feb-04 23:33N 51°13' E 002°00'1111.3
2016-Feb-04 22:33N 51°06' E 001°47'1212.4
2016-Feb-04 21:33N 50°57' E 001°33'113 9.4
2016-Feb-04 09:30N 50°28' W 001°20'  

Dump ship's entire track history